Time;durP1;ratioP1;P1;durP2;ratioP2;P2;SDS_P1;SDS_P2;PMS_P1;PMS_P2;Temp;Humidity;BMP_temperature;BMP_pressure;BME280_temperature;BME280_humidity;BME280_pressure;Samples;Min_cycle;Max_cycle;Signal;HPM_P1;HPM_P2
2021/09/13 00:00:07;;;;;;;0.80;0.60;;;14.10;93.90;;;;;;5067004;28;20015;-65
2021/09/13 00:02:32;;;;;;;0.77;0.60;;;14.10;94.00;;;;;;5061821;28;20079;-65
2021/09/13 00:04:58;;;;;;;0.60;0.50;;;14.00;94.00;;;;;;5061804;28;20025;-65
2021/09/13 00:07:24;;;;;;;0.85;0.63;;;14.10;94.10;;;;;;5066886;28;20082;-65
2021/09/13 00:09:49;;;;;;;0.93;0.68;;;14.00;94.10;;;;;;5071892;28;20013;-65
2021/09/13 00:12:15;;;;;;;0.93;0.57;;;14.00;94.10;;;;;;5030857;28;20063;-65
2021/09/13 00:14:41;;;;;;;1.15;0.77;;;14.00;94.20;;;;;;5063616;28;20020;-65
2021/09/13 00:17:06;;;;;;;11.15;1.10;;;14.00;94.30;;;;;;5057835;28;20029;-65
2021/09/13 00:19:32;;;;;;;2.08;0.57;;;13.90;94.30;;;;;;5062987;28;20067;-66
2021/09/13 00:21:57;;;;;;;12.63;0.60;;;13.90;94.30;;;;;;5064460;28;20074;-65
2021/09/13 00:24:23;;;;;;;8.38;0.55;;;13.80;94.50;;;;;;5062156;28;20029;-65
2021/09/13 00:26:49;;;;;;;0.90;0.50;;;13.80;94.50;;;;;;5058176;28;20104;-65
2021/09/13 00:29:15;;;;;;;1.65;0.60;;;13.80;94.60;;;;;;5062870;28;20124;-65
2021/09/13 00:31:40;;;;;;;1.00;0.70;;;13.70;94.60;;;;;;5059561;28;20024;-65
2021/09/13 00:34:06;;;;;;;1.00;0.82;;;13.70;94.70;;;;;;5057333;28;20082;-65
2021/09/13 00:36:31;;;;;;;1.00;0.77;;;13.70;94.80;;;;;;5068244;28;20052;-65
2021/09/13 00:38:57;;;;;;;4.38;0.98;;;13.70;94.80;;;;;;5056395;28;20475;-66
2021/09/13 00:41:22;;;;;;;1.30;1.15;;;13.70;94.80;;;;;;5059909;28;20536;-65
2021/09/13 00:43:49;;;;;;;1.20;1.00;;;13.70;94.90;;;;;;5069117;28;20523;-65
2021/09/13 00:46:14;;;;;;;2.28;1.30;;;13.70;94.90;;;;;;5060834;28;20043;-65
2021/09/13 00:48:40;;;;;;;2.90;1.40;;;13.70;95.00;;;;;;5061695;28;20364;-65
2021/09/13 00:51:05;;;;;;;2.05;1.42;;;13.60;94.90;;;;;;5040342;28;20033;-65
2021/09/13 00:53:31;;;;;;;1.92;1.40;;;13.60;95.00;;;;;;5060534;28;20021;-65
2021/09/13 00:55:57;;;;;;;2.53;1.23;;;13.60;95.00;;;;;;5070194;28;20020;-65
2021/09/13 00:58:25;;;;;;;3.03;1.38;;;13.60;95.00;;;;;;5068806;28;20025;-65
2021/09/13 01:00:51;;;;;;;1.33;1.10;;;13.60;95.10;;;;;;5071558;28;20021;-65
2021/09/13 01:03:17;;;;;;;1.67;0.98;;;13.50;95.10;;;;;;5064206;28;20028;-65
2021/09/13 01:05:42;;;;;;;1.15;1.00;;;13.50;95.20;;;;;;5058190;28;20024;-65
2021/09/13 01:08:08;;;;;;;1.40;1.30;;;13.50;95.20;;;;;;5051408;28;20032;-65
2021/09/13 01:10:33;;;;;;;1.10;1.00;;;13.40;95.20;;;;;;5074425;28;20499;-65
2021/09/13 01:12:59;;;;;;;1.13;0.60;;;13.40;95.30;;;;;;5066479;28;20025;-65
2021/09/13 01:15:24;;;;;;;1.50;0.50;;;13.40;95.30;;;;;;5075302;28;20012;-65
2021/09/13 01:17:50;;;;;;;1.63;0.52;;;13.40;95.30;;;;;;5068340;28;20075;-65
2021/09/13 01:20:16;;;;;;;2.17;0.90;;;13.30;95.40;;;;;;5067567;28;20491;-65
2021/09/13 01:22:45;;;;;;;1.58;0.98;;;13.20;95.40;;;;;;5067103;28;20017;-66
2021/09/13 01:25:11;;;;;;;3.70;0.98;;;13.20;95.50;;;;;;5067639;28;20021;-65
2021/09/13 01:27:37;;;;;;;4.53;1.05;;;13.20;95.60;;;;;;5073439;28;20090;-65
2021/09/13 01:30:04;;;;;;;1.50;1.10;;;13.10;95.60;;;;;;5064097;28;20025;-65
2021/09/13 01:32:30;;;;;;;7.07;1.35;;;13.10;95.70;;;;;;5062052;28;20451;-65
2021/09/13 01:34:56;;;;;;;5.10;1.00;;;13.10;95.80;;;;;;5056469;28;20052;-65
2021/09/13 01:37:21;;;;;;;3.53;1.60;;;13.10;95.80;;;;;;5032309;28;20020;-65
2021/09/13 01:39:47;;;;;;;2.17;1.65;;;13.10;95.80;;;;;;5066440;28;20434;-65
2021/09/13 01:42:12;;;;;;;1.92;1.52;;;13.10;95.90;;;;;;5072274;28;20428;-65
2021/09/13 01:44:38;;;;;;;1.70;1.58;;;13.10;95.90;;;;;;5030808;28;20080;-65
2021/09/13 01:47:03;;;;;;;2.13;1.85;;;13.10;96.00;;;;;;5027848;28;20434;-65
2021/09/13 01:49:29;;;;;;;2.65;1.77;;;13.10;96.00;;;;;;5027256;28;20038;-65
2021/09/13 01:51:54;;;;;;;1.67;1.58;;;13.10;96.00;;;;;;5028887;28;20394;-65
2021/09/13 01:54:20;;;;;;;2.60;1.83;;;13.10;96.00;;;;;;5030347;28;20013;-65
2021/09/13 01:56:46;;;;;;;1.50;1.40;;;13.10;96.10;;;;;;5012546;28;20056;-65
2021/09/13 01:59:11;;;;;;;2.38;1.40;;;13.10;96.10;;;;;;5028012;28;20026;-65
2021/09/13 02:01:37;;;;;;;2.70;1.55;;;13.00;96.10;;;;;;5028964;28;20052;-65
2021/09/13 02:04:03;;;;;;;2.83;1.27;;;13.00;96.10;;;;;;5027505;28;20026;-65
2021/09/13 02:06:30;;;;;;;1.10;0.82;;;13.00;96.20;;;;;;5022388;28;20018;-65
2021/09/13 02:08:55;;;;;;;0.98;0.68;;;13.00;96.20;;;;;;5026905;28;20474;-65
2021/09/13 02:11:21;;;;;;;0.75;0.57;;;12.90;96.20;;;;;;5027362;28;20032;-65
2021/09/13 02:13:46;;;;;;;0.80;0.70;;;12.90;96.20;;;;;;5021561;28;20541;-65
2021/09/13 02:16:12;;;;;;;0.98;0.70;;;12.80;96.30;;;;;;5027365;28;20021;-65
2021/09/13 02:18:37;;;;;;;0.77;0.60;;;12.80;96.30;;;;;;5010270;28;20018;-65
2021/09/13 02:21:03;;;;;;;1.00;0.70;;;12.80;96.30;;;;;;5020383;28;20474;-65
2021/09/13 02:23:28;;;;;;;0.80;0.60;;;12.70;96.40;;;;;;5022426;28;20033;-65
2021/09/13 02:25:54;;;;;;;1.35;0.98;;;12.60;96.40;;;;;;5006022;28;20438;-65
2021/09/13 02:28:19;;;;;;;1.75;1.00;;;12.60;96.40;;;;;;5019428;28;20026;-65
2021/09/13 02:30:45;;;;;;;1.00;0.80;;;12.60;96.40;;;;;;5022883;28;20025;-65
2021/09/13 02:33:11;;;;;;;2.75;0.77;;;12.60;96.40;;;;;;5026307;28;20025;-65
2021/09/13 02:35:37;;;;;;;0.90;0.60;;;12.60;96.40;;;;;;5018955;28;20047;-65
2021/09/13 02:38:02;;;;;;;0.90;0.70;;;12.60;96.50;;;;;;5020032;28;20387;-65
2021/09/13 02:40:28;;;;;;;1.88;0.55;;;12.50;96.40;;;;;;5042913;28;20032;-65
2021/09/13 02:42:53;;;;;;;0.73;0.40;;;12.50;96.50;;;;;;5052434;28;20443;-65
2021/09/13 02:45:19;;;;;;;0.80;0.60;;;12.50;96.50;;;;;;5049234;28;20048;-65
2021/09/13 02:47:45;;;;;;;2.58;1.05;;;12.40;96.60;;;;;;5070044;28;20035;-65
2021/09/13 02:50:11;;;;;;;6.15;1.13;;;12.40;96.60;;;;;;5063669;28;20028;-65
2021/09/13 02:52:38;;;;;;;18.98;1.10;;;12.40;96.70;;;;;;5059030;28;20048;-65
2021/09/13 02:55:05;;;;;;;14.25;1.08;;;12.30;96.70;;;;;;5067467;28;20021;-65
2021/09/13 02:57:30;;;;;;;10.90;1.02;;;12.30;96.70;;;;;;5067371;28;20045;-65
2021/09/13 02:59:56;;;;;;;2.55;1.10;;;12.30;96.80;;;;;;5064620;28;20097;-67
2021/09/13 03:02:21;;;;;;;2.30;0.80;;;12.30;96.80;;;;;;5056183;28;20389;-65
2021/09/13 03:04:47;;;;;;;2.75;0.70;;;12.30;96.90;;;;;;5040449;28;20388;-65
2021/09/13 03:07:13;;;;;;;2.28;1.00;;;12.30;96.90;;;;;;5067971;28;20054;-66
2021/09/13 03:09:39;;;;;;;2.17;0.95;;;12.30;96.90;;;;;;5067456;28;20012;-65
2021/09/13 03:12:05;;;;;;;1.55;0.93;;;12.30;96.90;;;;;;5054201;28;20423;-65
2021/09/13 03:14:32;;;;;;;1.40;1.00;;;12.30;97.00;;;;;;5065007;28;20068;-65
2021/09/13 03:16:57;;;;;;;5.82;1.17;;;12.30;97.00;;;;;;5064786;28;20025;-65
2021/09/13 03:19:23;;;;;;;6.50;1.13;;;12.30;97.10;;;;;;5040979;28;20070;-65
2021/09/13 03:21:48;;;;;;;8.95;1.20;;;12.20;97.10;;;;;;5065684;28;20397;-65
2021/09/13 03:24:14;;;;;;;9.98;1.20;;;12.20;97.10;;;;;;5055076;28;20025;-65
2021/09/13 03:26:40;;;;;;;2.83;1.10;;;12.20;97.20;;;;;;5062582;28;20468;-65
2021/09/13 03:29:06;;;;;;;2.00;0.90;;;12.20;97.20;;;;;;5040691;28;20025;-65
2021/09/13 03:31:31;;;;;;;2.15;1.00;;;12.20;97.20;;;;;;5062567;28;20024;-65
2021/09/13 03:33:57;;;;;;;1.63;1.13;;;12.20;97.30;;;;;;5058474;28;20029;-65
2021/09/13 03:36:22;;;;;;;2.90;1.60;;;12.20;97.30;;;;;;5061293;28;20021;-65
2021/09/13 03:38:48;;;;;;;3.50;1.60;;;12.20;97.30;;;;;;5060720;28;20091;-65
2021/09/13 03:41:13;;;;;;;3.60;1.92;;;12.20;97.40;;;;;;5065522;28;20108;-65
2021/09/13 03:43:39;;;;;;;3.58;2.83;;;12.20;97.40;;;;;;5053122;28;20090;-65
2021/09/13 03:46:04;;;;;;;3.78;2.53;;;12.20;97.40;;;;;;5038909;28;20044;-65
2021/09/13 03:48:30;;;;;;;3.70;2.72;;;12.20;97.40;;;;;;5044380;28;20025;-65
2021/09/13 03:50:55;;;;;;;3.70;3.03;;;12.20;97.50;;;;;;5020302;28;20099;-65
2021/09/13 03:53:21;;;;;;;4.32;2.55;;;12.20;97.50;;;;;;5020828;28;20093;-65
2021/09/13 03:55:47;;;;;;;3.33;2.88;;;12.10;97.50;;;;;;5048675;28;20469;-65
2021/09/13 03:58:13;;;;;;;3.42;2.83;;;12.20;97.50;;;;;;5037717;28;20466;-65
2021/09/13 04:00:38;;;;;;;3.22;2.75;;;12.10;97.50;;;;;;5023214;28;20025;-65
2021/09/13 04:03:07;;;;;;;2.88;2.50;;;12.10;97.50;;;;;;5045669;28;20017;-65
2021/09/13 04:05:33;;;;;;;3.53;2.45;;;12.10;97.60;;;;;;5042317;28;20107;-65
2021/09/13 04:08:08;;;;;;;2.33;2.10;;;12.10;97.60;;;;;;5041566;28;20465;-65
2021/09/13 04:13:05;;;;;;;2.83;2.13;;;12.10;97.70;;;;;;5037939;28;20033;-65
2021/09/13 04:15:31;;;;;;;2.47;1.95;;;12.10;97.70;;;;;;5044579;28;20017;-65
2021/09/13 04:17:56;;;;;;;4.82;2.50;;;12.10;97.70;;;;;;5038199;28;20017;-65
2021/09/13 04:20:22;;;;;;;3.53;1.73;;;12.10;97.80;;;;;;5045966;28;20025;-65
2021/09/13 04:22:47;;;;;;;3.88;1.73;;;12.10;97.80;;;;;;5040468;28;20021;-65
2021/09/13 04:25:13;;;;;;;9.77;1.90;;;12.10;97.90;;;;;;5037995;28;20026;-65
2021/09/13 04:27:38;;;;;;;9.40;1.33;;;12.00;97.90;;;;;;5041595;28;20040;-65
2021/09/13 04:30:05;;;;;;;6.03;0.90;;;12.00;97.90;;;;;;5041059;28;20112;-65
2021/09/13 04:32:30;;;;;;;4.03;0.95;;;12.00;98.00;;;;;;5040332;28;20021;-65
2021/09/13 04:34:56;;;;;;;3.25;0.90;;;11.90;98.00;;;;;;5042634;28;20100;-65
2021/09/13 04:37:21;;;;;;;2.67;0.90;;;11.90;98.10;;;;;;5042780;28;20083;-65
2021/09/13 04:39:47;;;;;;;1.58;1.10;;;11.90;98.20;;;;;;5044655;28;20501;-65
2021/09/13 04:42:12;;;;;;;2.83;1.08;;;11.90;98.20;;;;;;5038709;28;20033;-65
2021/09/13 04:44:38;;;;;;;3.58;1.23;;;11.90;98.30;;;;;;5048074;28;20053;-65
2021/09/13 04:47:04;;;;;;;3.45;1.35;;;11.90;98.30;;;;;;5039199;28;20029;-65
2021/09/13 04:49:29;;;;;;;2.58;1.40;;;11.90;98.40;;;;;;5062106;28;20435;-65
2021/09/13 04:51:55;;;;;;;1.50;1.40;;;11.80;98.40;;;;;;5043120;28;20435;-65
2021/09/13 04:54:20;;;;;;;1.40;1.30;;;11.90;98.40;;;;;;5042125;28;20045;-65
2021/09/13 04:56:46;;;;;;;2.00;1.60;;;11.90;98.40;;;;;;5062410;28;20025;-65
2021/09/13 04:59:14;;;;;;;1.90;1.30;;;11.80;98.40;;;;;;5058002;28;20385;-65
2021/09/13 05:01:40;;;;;;;1.55;1.25;;;11.80;98.40;;;;;;5041963;28;20017;-65
2021/09/13 05:04:09;;;;;;;2.45;1.50;;;11.90;98.40;;;;;;5060637;28;20435;-65
2021/09/13 05:06:37;;;;;;;2.20;1.67;;;11.90;98.40;;;;;;5043733;28;20104;-65
2021/09/13 05:09:03;;;;;;;2.15;1.80;;;11.90;98.50;;;;;;5054226;28;20103;-65
2021/09/13 05:11:28;;;;;;;2.47;1.88;;;11.90;98.50;;;;;;5058150;28;20485;-65
2021/09/13 05:13:54;;;;;;;2.88;1.73;;;11.90;98.50;;;;;;5063758;28;20019;-65
2021/09/13 05:16:20;;;;;;;2.22;1.67;;;11.90;98.50;;;;;;5041801;28;20024;-66
2021/09/13 05:18:45;;;;;;;2.80;1.88;;;11.90;98.80;;;;;;5063146;28;20387;-65
2021/09/13 05:21:12;;;;;;;2.97;2.08;;;11.80;98.50;;;;;;5061269;28;20021;-65
2021/09/13 05:23:37;;;;;;;4.57;1.60;;;11.90;98.50;;;;;;5054364;28;20025;-65
2021/09/13 05:26:05;;;;;;;2.78;1.95;;;11.90;98.60;;;;;;5063304;28;20384;-65
2021/09/13 05:28:31;;;;;;;2.20;1.80;;;11.90;98.60;;;;;;5059495;28;20028;-65
2021/09/13 05:30:56;;;;;;;3.20;2.17;;;11.90;98.50;;;;;;5045849;28;20052;-65
2021/09/13 05:33:22;;;;;;;2.92;2.35;;;11.90;98.50;;;;;;5061650;28;20021;-65
2021/09/13 05:35:47;;;;;;;2.90;2.35;;;11.90;98.50;;;;;;5056598;28;20522;-65
2021/09/13 05:38:13;;;;;;;3.28;2.10;;;11.90;98.50;;;;;;5063650;28;20021;-65
2021/09/13 05:40:40;;;;;;;2.30;2.10;;;11.90;98.50;;;;;;5051759;28;20388;-65
2021/09/13 05:43:07;;;;;;;2.05;1.67;;;11.90;98.50;;;;;;5054892;28;20424;-65
2021/09/13 05:45:34;;;;;;;2.55;2.08;;;11.90;98.50;;;;;;5055662;28;20413;-65
2021/09/13 05:48:05;;;;;;;2.10;1.90;;;11.90;98.50;;;;;;5055644;28;20539;-65
2021/09/13 05:50:31;;;;;;;2.83;2.03;;;11.90;98.50;;;;;;5055515;28;20405;-65
2021/09/13 05:52:56;;;;;;;2.08;1.52;;;11.90;98.50;;;;;;5055495;28;20028;-65
2021/09/13 05:55:22;;;;;;;1.80;1.10;;;11.90;98.50;;;;;;5055589;28;20033;-65
2021/09/13 05:57:48;;;;;;;1.42;1.02;;;11.90;98.50;;;;;;5055592;28;20025;-65
2021/09/13 06:00:14;;;;;;;1.42;0.93;;;11.90;98.60;;;;;;5055439;28;20031;-65
2021/09/13 06:02:40;;;;;;;1.50;1.15;;;11.90;98.60;;;;;;5055281;28;20029;-65
2021/09/13 06:05:06;;;;;;;1.10;0.90;;;11.90;98.70;;;;;;5064706;28;20414;-65
2021/09/13 06:07:31;;;;;;;1.60;1.20;;;11.90;98.60;;;;;;5070015;28;20025;-65
2021/09/13 06:09:57;;;;;;;1.52;1.17;;;11.90;98.60;;;;;;5037459;28;20033;-65
2021/09/13 06:12:23;;;;;;;2.33;1.50;;;11.90;98.60;;;;;;5055071;28;20025;-65
2021/09/13 06:14:48;;;;;;;1.40;1.00;;;12.00;98.70;;;;;;5055252;28;20029;-65
2021/09/13 06:17:14;;;;;;;1.17;1.08;;;12.00;98.70;;;;;;5055376;28;20021;-66
2021/09/13 06:19:40;;;;;;;1.00;0.90;;;12.00;98.70;;;;;;5055191;28;20029;-65
2021/09/13 06:22:10;;;;;;;1.10;1.00;;;12.10;98.70;;;;;;5037000;28;20039;-65
2021/09/13 06:24:39;;;;;;;1.35;0.90;;;12.10;98.70;;;;;;5055053;28;20057;-65
2021/09/13 06:27:06;;;;;;;1.35;0.70;;;12.10;98.80;;;;;;5055097;28;20021;-65
2021/09/13 06:29:32;;;;;;;1.05;0.80;;;12.10;98.90;;;;;;5037137;28;20045;-65
2021/09/13 06:31:57;;;;;;;1.13;0.80;;;12.10;98.90;;;;;;5055024;28;20037;-65
2021/09/13 06:34:23;;;;;;;1.17;0.88;;;12.20;98.90;;;;;;5054898;28;20094;-65
2021/09/13 06:36:49;;;;;;;1.55;1.10;;;12.20;98.90;;;;;;5054776;28;20112;-65
2021/09/13 06:39:14;;;;;;;1.55;1.25;;;12.20;98.90;;;;;;5054922;28;20035;-65
2021/09/13 06:41:40;;;;;;;1.90;1.15;;;12.30;98.90;;;;;;5054659;28;20476;-65
2021/09/13 06:44:06;;;;;;;2.03;1.48;;;12.30;98.90;;;;;;5054646;28;20132;-65
2021/09/13 06:49:08;;;;;;;2.97;1.95;;;12.40;98.90;;;;;;5054821;28;20052;-65
2021/09/13 06:51:33;;;;;;;4.43;2.80;;;12.50;99.00;;;;;;5064312;28;20016;-65
2021/09/13 06:54:15;;;;;;;;;;;;;;;;;;;;;
2021/09/13 06:56:41;;;;;;;3.65;2.83;;;12.50;99.10;;;;;;5042990;28;20019;-65
2021/09/13 06:59:06;;;;;;;2.72;1.98;;;12.60;99.20;;;;;;5054286;28;20116;-65
2021/09/13 07:01:32;;;;;;;3.65;3.00;;;12.60;99.20;;;;;;5052184;28;20473;-66
2021/09/13 07:03:58;;;;;;;5.20;3.63;;;12.70;99.30;;;;;;5044525;28;20112;-66
2021/09/13 07:06:27;;;;;;;4.47;3.17;;;12.70;99.40;;;;;;5065177;28;20113;-66
2021/09/13 07:08:53;;;;;;;4.55;3.60;;;12.80;99.50;;;;;;5054086;28;20029;-66
2021/09/13 07:11:19;;;;;;;4.25;3.22;;;12.90;99.50;;;;;;5054123;28;20033;-66
2021/09/13 07:13:45;;;;;;;3.38;2.83;;;12.90;99.50;;;;;;5054097;28;20029;-66
2021/09/13 07:16:10;;;;;;;3.00;2.53;;;13.00;99.50;;;;;;5053872;28;20045;-66
2021/09/13 07:18:36;;;;;;;3.58;2.70;;;13.00;99.50;;;;;;5053936;28;20036;-65
2021/09/13 07:21:01;;;;;;;4.35;3.22;;;13.10;99.40;;;;;;5062321;28;20091;-66
2021/09/13 07:23:27;;;;;;;3.55;2.72;;;13.10;99.40;;;;;;5065748;28;20055;-66
2021/09/13 07:25:53;;;;;;;5.22;3.22;;;13.20;99.70;;;;;;5063510;28;20531;-65
2021/09/13 07:28:20;;;;;;;5.72;3.63;;;13.30;99.40;;;;;;5054637;28;20096;-66
2021/09/13 07:30:46;;;;;;;6.63;4.75;;;13.30;99.50;;;;;;5035837;28;20094;-66
2021/09/13 07:33:12;;;;;;;6.72;5.07;;;13.40;99.50;;;;;;5053537;28;20469;-66
2021/09/13 07:35:37;;;;;;;7.05;5.03;;;13.50;99.60;;;;;;5053693;28;20489;-66
2021/09/13 07:38:03;;;;;;;6.20;3.95;;;13.60;99.60;;;;;;5053485;28;20033;-66
2021/09/13 07:40:28;;;;;;;5.50;4.50;;;13.70;99.60;;;;;;5053406;28;20021;-66
2021/09/13 07:42:54;;;;;;;5.57;3.92;;;13.80;99.70;;;;;;5053504;28;20021;-66
2021/09/13 07:45:21;;;;;;;4.88;3.78;;;13.90;99.80;;;;;;5035260;28;20378;-65
2021/09/13 07:47:47;;;;;;;6.65;3.80;;;14.00;99.80;;;;;;5053083;28;20053;-66
2021/09/13 07:50:12;;;;;;;5.00;3.42;;;14.10;99.80;;;;;;5053258;28;20049;-67
2021/09/13 07:52:41;;;;;;;4.95;3.42;;;14.20;99.90;;;;;;5052854;28;20469;-65
2021/09/13 07:55:07;;;;;;;6.07;3.65;;;14.20;99.90;;;;;;5053216;28;20032;-65
2021/09/13 07:57:33;;;;;;;5.88;3.78;;;14.40;99.90;;;;;;5035164;28;20021;-66
2021/09/13 07:59:58;;;;;;;5.78;3.58;;;14.40;99.90;;;;;;5051341;28;20052;-65
2021/09/13 08:02:25;;;;;;;8.73;3.20;;;14.50;99.90;;;;;;5052949;28;20079;-66
2021/09/13 08:04:51;;;;;;;5.18;3.45;;;14.60;99.90;;;;;;5052583;28;20025;-66
2021/09/13 08:07:16;;;;;;;5.20;4.03;;;14.70;99.90;;;;;;5053058;28;20456;-66
2021/09/13 08:09:42;;;;;;;4.68;3.88;;;14.80;99.90;;;;;;5052874;28;20435;-65
2021/09/13 08:12:08;;;;;;;5.25;3.40;;;14.90;99.90;;;;;;5052822;28;20107;-66
2021/09/13 08:14:34;;;;;;;5.00;3.83;;;15.10;99.90;;;;;;5052808;28;20108;-66
2021/09/13 08:17:00;;;;;;;7.93;4.18;;;15.10;99.90;;;;;;5052864;28;20044;-66
2021/09/13 08:19:25;;;;;;;5.15;4.28;;;15.30;99.90;;;;;;5053125;28;20445;-65
2021/09/13 08:21:51;;;;;;;5.22;4.28;;;15.40;99.90;;;;;;5056457;28;20040;-65
2021/09/13 08:24:16;;;;;;;5.70;4.90;;;15.50;99.90;;;;;;5053937;28;20111;-65
2021/09/13 08:26:42;;;;;;;5.57;3.45;;;15.60;99.90;;;;;;5072130;28;20028;-65
2021/09/13 08:29:13;;;;;;;4.57;3.58;;;15.70;99.90;;;;;;5069296;28;20027;-66
2021/09/13 08:31:39;;;;;;;4.68;3.63;;;15.90;99.90;;;;;;5052805;28;20381;-65
2021/09/13 08:34:04;;;;;;;6.80;3.38;;;16.00;99.90;;;;;;5034800;28;20591;-65
2021/09/13 08:36:30;;;;;;;5.78;3.97;;;16.10;99.90;;;;;;5052656;28;20029;-65
2021/09/13 08:38:55;;;;;;;7.28;3.60;;;16.30;99.90;;;;;;5034639;28;20040;-65
2021/09/13 08:41:21;;;;;;;4.28;3.30;;;16.50;99.90;;;;;;5052593;28;20532;-68
2021/09/13 08:43:47;;;;;;;3.55;2.95;;;16.70;99.70;;;;;;5052272;28;20052;-68
2021/09/13 08:46:20;;;;;;;4.13;3.28;;;16.90;99.50;;;;;;5052415;28;20033;-68
2021/09/13 08:48:58;;;;;;;3.03;2.45;;;17.10;99.40;;;;;;5034753;28;20029;-68
2021/09/13 08:51:30;;;;;;;3.80;2.78;;;17.20;99.20;;;;;;5051934;28;20028;-68
2021/09/13 08:54:04;;;;;;;3.35;2.70;;;17.30;99.10;;;;;;5066555;28;20031;-68
2021/09/13 08:56:52;;;;;;;4.80;2.42;;;17.40;98.90;;;;;;5071107;28;20074;-68
2021/09/13 08:59:23;;;;;;;4.30;2.63;;;17.60;98.80;;;;;;5071299;28;20079;-68
2021/09/13 09:01:50;;;;;;;3.28;2.20;;;17.80;98.90;;;;;;5070376;28;20031;-68
2021/09/13 09:04:16;;;;;;;3.88;1.98;;;17.90;98.50;;;;;;5071726;28;20142;-68
2021/09/13 09:06:44;;;;;;;4.55;2.30;;;18.00;98.30;;;;;;5052637;28;20025;-68
2021/09/13 09:09:12;;;;;;;3.00;1.80;;;18.20;98.20;;;;;;5070583;28;20023;-68
2021/09/13 09:11:59;;;;;;;2.10;1.60;;;18.20;98.10;;;;;;5071456;28;20047;-68
2021/09/13 09:14:42;;;;;;;2.33;1.48;;;18.40;97.90;;;;;;5068883;28;20104;-68
2021/09/13 09:17:21;;;;;;;1.95;1.15;;;18.50;97.80;;;;;;5072497;28;20025;-69
2021/09/13 09:19:58;;;;;;;1.50;0.90;;;18.60;97.60;;;;;;5076003;28;20013;-68
2021/09/13 09:22:29;;;;;;;3.05;0.93;;;18.70;97.50;;;;;;5046199;28;20029;-68
2021/09/13 09:24:56;;;;;;;1.30;0.70;;;18.80;97.20;;;;;;5055781;28;20025;-68
2021/09/13 09:27:24;;;;;;;3.90;1.05;;;18.90;96.90;;;;;;5056098;28;20021;-68
2021/09/13 09:29:50;;;;;;;2.65;0.80;;;19.00;96.80;;;;;;5066790;28;20012;-68
2021/09/13 09:32:25;;;;;;;2.20;0.85;;;19.20;96.60;;;;;;5045572;28;20029;-68
2021/09/13 09:34:52;;;;;;;1.55;0.93;;;19.30;96.20;;;;;;5038289;28;20021;-68
2021/09/13 09:37:18;;;;;;;2.00;1.08;;;19.40;96.00;;;;;;5056331;28;20500;-65
2021/09/13 09:39:49;;;;;;;2.88;0.90;;;19.50;95.90;;;;;;5055675;28;20025;-66
2021/09/13 09:42:32;;;;;;;1.83;0.85;;;19.60;95.60;;;;;;5065391;28;20488;-65
2021/09/13 09:44:59;;;;;;;2.55;1.23;;;19.80;95.30;;;;;;5055283;28;20045;-66
2021/09/13 09:47:25;;;;;;;3.67;0.95;;;19.90;95.20;;;;;;5054975;28;20435;-65
2021/09/13 09:49:56;;;;;;;2.33;0.73;;;20.00;95.00;;;;;;5038009;28;20480;-65
2021/09/13 09:52:40;;;;;;;1.67;1.25;;;20.10;94.70;;;;;;5055305;28;20020;-66
2021/09/13 09:55:20;;;;;;;2.55;1.10;;;20.20;94.20;;;;;;5055525;28;20017;-66
2021/09/13 09:58:07;;;;;;;1.77;0.75;;;20.30;94.10;;;;;;5055561;28;20029;-66
2021/09/13 10:00:34;;;;;;;1.20;0.70;;;20.50;93.80;;;;;;5037605;28;20051;-65
2021/09/13 10:03:00;;;;;;;1.40;0.85;;;20.50;93.60;;;;;;5055215;28;20021;-66
2021/09/13 10:05:27;;;;;;;1.58;0.80;;;20.60;93.40;;;;;;5055393;28;20102;-65
2021/09/13 10:07:53;;;;;;;1.65;0.95;;;20.80;93.10;;;;;;5055618;28;20047;-65
2021/09/13 10:10:20;;;;;;;3.95;1.10;;;21.00;93.00;;;;;;5050672;28;20488;-67
2021/09/13 10:12:46;;;;;;;3.35;1.02;;;21.20;92.70;;;;;;5069167;28;20020;-66
2021/09/13 10:15:14;;;;;;;2.08;1.20;;;21.30;92.50;;;;;;5055909;28;20018;-66
2021/09/13 10:17:39;;;;;;;2.08;1.25;;;21.40;92.30;;;;;;5074092;28;20476;-66
2021/09/13 10:20:06;;;;;;;2.38;1.10;;;21.60;92.10;;;;;;5069321;28;20115;-66
2021/09/13 10:23:04;;;;;;;2.25;1.15;;;21.70;91.80;;;;;;5074299;28;20028;-66
2021/09/13 10:25:31;;;;;;;1.73;1.00;;;21.70;91.30;;;;;;5070842;28;20021;-66
2021/09/13 10:28:06;;;;;;;2.08;1.00;;;21.90;91.30;;;;;;5053973;28;20110;-65
2021/09/13 10:30:47;;;;;;;2.10;1.05;;;22.00;90.90;;;;;;5054652;28;20025;-66
2021/09/13 10:33:13;;;;;;;2.10;0.80;;;22.00;90.90;;;;;;5054911;28;20023;-66
2021/09/13 10:35:53;;;;;;;2.65;0.70;;;22.20;90.60;;;;;;5054885;28;20075;-65
2021/09/13 10:38:42;;;;;;;3.45;0.60;;;22.50;90.20;;;;;;5071182;28;20029;-66
2021/09/13 10:41:07;;;;;;;1.00;0.57;;;22.80;89.70;;;;;;5074072;28;20056;-66
2021/09/13 10:43:33;;;;;;;2.65;0.70;;;23.10;89.40;;;;;;5074373;28;20111;-65
2021/09/13 10:45:58;;;;;;;3.13;1.30;;;23.40;88.60;;;;;;5060746;28;20033;-66
2021/09/13 10:48:24;;;;;;;2.88;1.27;;;23.70;84.30;;;;;;5054616;28;20033;-66
2021/09/13 10:50:52;;;;;;;2.45;0.80;;;23.70;81.30;;;;;;5054486;28;20473;-66
2021/09/13 10:53:17;;;;;;;1.58;0.50;;;24.30;81.80;;;;;;5054428;28;20028;-66
2021/09/13 10:55:45;;;;;;;1.77;0.73;;;25.10;80.60;;;;;;5056970;28;20532;-66
2021/09/13 10:58:34;;;;;;;0.88;0.50;;;25.60;78.80;;;;;;5068471;28;20059;-66
2021/09/13 11:01:26;;;;;;;1.15;0.73;;;26.20;76.50;;;;;;5069715;28;20024;-66
2021/09/13 11:04:05;;;;;;;1.65;0.60;;;26.70;73.50;;;;;;5055941;28;20025;-66
2021/09/13 11:06:52;;;;;;;1.60;0.70;;;28.00;73.30;;;;;;5070891;28;20023;-66
2021/09/13 11:09:20;;;;;;;1.58;0.60;;;29.30;70.90;;;;;;5073176;28;20128;-66
2021/09/13 11:11:53;;;;;;;2.50;0.75;;;30.30;66.10;;;;;;5070331;28;20024;-66
2021/09/13 11:14:20;;;;;;;0.50;0.40;;;30.30;60.20;;;;;;5054672;28;20029;-66
2021/09/13 11:16:49;;;;;;;1.38;0.50;;;30.90;58.70;;;;;;5069968;28;20020;-66
2021/09/13 11:19:16;;;;;;;0.80;0.60;;;31.50;58.00;;;;;;5054789;28;20427;-66
2021/09/13 11:21:45;;;;;;;2.70;0.68;;;32.20;56.10;;;;;;5072643;28;20059;-66
2021/09/13 11:24:17;;;;;;;0.88;0.50;;;32.80;55.20;;;;;;5054385;28;20078;-66
2021/09/13 11:26:48;;;;;;;1.13;0.70;;;33.60;54.60;;;;;;5072319;28;20412;-66
2021/09/13 11:29:19;;;;;;;1.67;0.70;;;34.20;51.40;;;;;;5073106;28;20024;-65
2021/09/13 11:31:51;;;;;;;1.73;0.60;;;33.40;48.20;;;;;;5052580;28;20098;-66
2021/09/13 11:34:16;;;;;;;2.28;0.75;;;32.90;50.50;;;;;;5069161;28;20024;-66
2021/09/13 11:37:01;;;;;;;1.52;0.60;;;33.30;50.80;;;;;;5072841;28;20338;-66
2021/09/13 11:39:36;;;;;;;0.90;0.40;;;34.40;50.40;;;;;;5072997;28;20020;-65
2021/09/13 11:42:25;;;;;;;0.98;0.40;;;35.40;49.10;;;;;;5070229;28;20021;-66
2021/09/13 11:45:11;;;;;;;1.20;0.43;;;35.60;48.60;;;;;;5072036;28;20051;-66
2021/09/13 11:47:37;;;;;;;1.75;0.40;;;35.20;47.90;;;;;;5070387;28;20035;-66
2021/09/13 11:50:05;;;;;;;0.98;0.40;;;34.50;47.60;;;;;;5072934;28;20016;-65
2021/09/13 11:52:32;;;;;;;;;;;34.40;46.90;;;;;;5069050;28;20472;-65
2021/09/13 11:55:15;;;;;;;1.30;0.55;;;34.00;45.00;;;;;;5070197;28;19904;-66
2021/09/13 11:57:54;;;;;;;1.83;0.60;;;33.50;45.00;;;;;;5072484;28;20044;-66
2021/09/13 12:00:25;;;;;;;0.98;0.50;;;33.10;44.70;;;;;;5072755;28;20028;-66
2021/09/13 12:02:55;;;;;;;1.48;0.43;;;33.80;45.90;;;;;;5067414;28;20107;-66
2021/09/13 12:05:27;;;;;;;0.88;0.40;;;35.00;45.30;;;;;;5072927;28;20024;-65
2021/09/13 12:07:54;;;;;;;0.90;0.50;;;35.10;42.90;;;;;;5072688;28;20021;-65
2021/09/13 12:10:23;;;;;;;1.33;0.50;;;35.20;44.00;;;;;;5051936;28;20499;-65
2021/09/13 12:12:53;;;;;;;1.45;0.50;;;35.80;43.20;;;;;;5054678;28;20047;-65
2021/09/13 12:15:20;;;;;;;2.13;0.75;;;36.70;42.60;;;;;;5067838;28;20017;-65
2021/09/13 12:17:51;;;;;;;1.67;0.60;;;36.10;40.30;;;;;;5051327;28;20020;-65
2021/09/13 12:20:45;;;;;;;1.42;0.60;;;36.40;40.50;;;;;;5052705;28;20029;-66
2021/09/13 12:23:12;;;;;;;3.35;0.90;;;35.80;39.60;;;;;;5051532;28;20094;-65
2021/09/13 12:25:47;;;;;;;1.25;0.60;;;34.70;40.00;;;;;;5034918;28;20035;-65
2021/09/13 12:28:19;;;;;;;1.45;0.50;;;33.90;41.30;;;;;;5052762;28;20099;-65
2021/09/13 12:30:56;;;;;;;1.85;0.60;;;34.40;42.80;;;;;;5052663;28;20040;-65
2021/09/13 12:33:34;;;;;;;0.63;0.50;;;34.90;42.30;;;;;;5052586;28;20396;-65
2021/09/13 12:36:21;;;;;;;1.60;0.50;;;35.30;42.60;;;;;;5052763;28;20107;-65
2021/09/13 12:38:49;;;;;;;1.95;0.85;;;35.60;42.20;;;;;;5034742;28;20029;-65
2021/09/13 12:41:28;;;;;;;1.00;0.50;;;35.60;42.40;;;;;;5052634;28;20108;-65
2021/09/13 12:43:54;;;;;;;1.35;0.60;;;35.00;42.20;;;;;;5052175;28;20044;-65
2021/09/13 12:46:20;;;;;;;2.63;0.47;;;34.10;43.40;;;;;;5052514;28;20031;-64
2021/09/13 12:48:48;;;;;;;0.68;0.35;;;33.60;43.20;;;;;;5052404;28;20017;-65
2021/09/13 12:51:22;;;;;;;1.17;0.50;;;33.70;43.80;;;;;;5052056;28;20029;-64
2021/09/13 12:54:05;;;;;;;1.27;0.40;;;33.50;44.20;;;;;;5034304;28;20033;-65
2021/09/13 12:56:45;;;;;;;3.78;0.68;;;33.70;44.60;;;;;;5052396;28;20032;-65